createdAt,value
2022-09-24T00:01:25.860Z,8.30
2022-09-24T00:03:59.671Z,8.26
2022-09-24T00:06:28.010Z,8.20
2022-09-24T00:08:56.403Z,8.17
2022-09-24T00:11:25.615Z,8.15
2022-09-24T00:13:53.783Z,8.13
2022-09-24T00:16:22.730Z,8.18
2022-09-24T00:18:49.943Z,8.16
2022-09-24T00:21:20.510Z,8.08
2022-09-24T00:23:52.852Z,8.04
2022-09-24T00:26:39.546Z,8.02
2022-09-24T00:29:08.355Z,8.00
2022-09-24T00:31:35.346Z,7.98
2022-09-24T00:34:02.340Z,7.95
2022-09-24T00:36:29.289Z,7.96
2022-09-24T00:38:58.541Z,7.89
2022-09-24T00:41:29.835Z,7.84
2022-09-24T00:43:57.452Z,7.79
2022-09-24T00:46:38.882Z,7.70
2022-09-24T00:49:13.670Z,7.64
2022-09-24T00:51:42.969Z,7.59
2022-09-24T00:54:16.477Z,7.58
2022-09-24T00:56:45.096Z,7.57
2022-09-24T00:59:17.535Z,7.57
2022-09-24T01:01:46.790Z,7.57
2022-09-24T01:04:16.344Z,7.53
2022-09-24T01:06:43.681Z,7.52
2022-09-24T01:09:10.829Z,7.50
2022-09-24T01:12:10.982Z,7.51
2022-09-24T01:14:52.859Z,7.54
2022-09-24T01:17:49.908Z,7.56
2022-09-24T01:20:52.645Z,7.52
2022-09-24T01:23:53.969Z,7.52
2022-09-24T01:26:56.703Z,7.50
2022-09-24T01:29:42.328Z,7.46
2022-09-24T01:32:18.958Z,7.40
2022-09-24T01:35:18.851Z,7.31
2022-09-24T01:37:52.242Z,7.27
2022-09-24T01:40:22.662Z,7.22
2022-09-24T01:42:51.607Z,7.15
2022-09-24T01:45:20.218Z,7.09
2022-09-24T01:47:48.508Z,7.06
2022-09-24T01:50:18.495Z,7.04
2022-09-24T01:52:58.498Z,7.07
2022-09-24T01:55:30.170Z,7.05
2022-09-24T01:58:08.118Z,7.06
2022-09-24T02:00:39.471Z,7.09
2022-09-24T02:03:11.818Z,7.07
2022-09-24T02:05:54.137Z,7.05
2022-09-24T02:08:24.366Z,7.05
2022-09-24T02:11:05.785Z,7.05
2022-09-24T02:13:40.983Z,7.06
2022-09-24T02:16:12.296Z,7.09
2022-09-24T02:18:40.572Z,7.07
2022-09-24T02:21:15.229Z,7.03
2022-09-24T02:23:51.647Z,7.02
2022-09-24T02:26:18.735Z,7.01
2022-09-24T02:28:46.635Z,6.97
2022-09-24T02:31:18.857Z,6.94
2022-09-24T02:34:08.918Z,6.96
2022-09-24T02:36:36.811Z,6.97
2022-09-24T02:39:03.785Z,6.95
2022-09-24T02:41:31.974Z,6.92
2022-09-24T02:43:59.276Z,6.90
2022-09-24T02:46:26.414Z,6.80
2022-09-24T02:48:53.592Z,6.71
2022-09-24T02:51:21.970Z,6.66
2022-09-24T02:53:48.930Z,6.61
2022-09-24T02:56:15.905Z,6.61
2022-09-24T02:58:43.397Z,6.62
2022-09-24T03:01:10.493Z,6.62
2022-09-24T03:03:37.407Z,6.68
2022-09-24T03:06:04.905Z,6.74
2022-09-24T03:08:32.453Z,6.74
2022-09-24T03:10:59.372Z,6.73
2022-09-24T03:13:26.381Z,6.74
2022-09-24T03:16:04.140Z,6.74
2022-09-24T03:18:31.069Z,6.71
2022-09-24T03:20:59.923Z,6.69
2022-09-24T03:23:27.434Z,6.65
2022-09-24T03:25:54.814Z,6.57
2022-09-24T03:28:22.231Z,6.52
2022-09-24T03:31:01.097Z,6.49
2022-09-24T03:33:49.791Z,6.49
2022-09-24T03:36:28.300Z,6.45
2022-09-24T03:38:56.973Z,6.45
2022-09-24T03:41:25.995Z,6.41
2022-09-24T03:43:53.260Z,6.39
2022-09-24T03:46:20.261Z,6.36
2022-09-24T03:48:47.629Z,6.29
2022-09-24T03:51:18.930Z,6.26
2022-09-24T03:53:46.749Z,6.22
2022-09-24T03:56:13.895Z,6.23
2022-09-24T03:58:42.112Z,6.19
2022-09-24T04:01:13.133Z,6.17
2022-09-24T04:03:42.473Z,6.15
2022-09-24T04:06:09.438Z,6.12
2022-09-24T04:08:36.464Z,6.12
2022-09-24T04:11:03.536Z,6.09
2022-09-24T04:13:31.025Z,6.07
2022-09-24T04:16:03.070Z,6.06
2022-09-24T04:18:30.193Z,6.08
2022-09-24T04:21:00.481Z,6.12
2022-09-24T04:23:28.582Z,6.16
2022-09-24T04:25:55.522Z,6.20
2022-09-24T04:28:22.512Z,6.26
2022-09-24T04:30:49.437Z,6.31
2022-09-24T04:33:17.325Z,6.36
2022-09-24T04:35:46.280Z,6.39
2022-09-24T04:38:13.759Z,6.37
2022-09-24T04:40:40.823Z,6.36
2022-09-24T04:43:10.225Z,6.33
2022-09-24T04:45:37.369Z,6.34
2022-09-24T04:48:04.519Z,6.33
2022-09-24T04:50:34.774Z,6.36
2022-09-24T04:53:02.572Z,6.40
2022-09-24T04:55:29.685Z,6.43
2022-09-24T04:57:57.457Z,6.49
2022-09-24T05:00:25.247Z,6.56
2022-09-24T05:03:03.476Z,6.66
2022-09-24T05:05:32.379Z,6.71
2022-09-24T05:07:59.914Z,6.78
2022-09-24T05:10:27.590Z,6.84
2022-09-24T05:12:55.154Z,6.93
2022-09-24T05:15:22.334Z,7.02
2022-09-24T05:17:49.275Z,7.05
2022-09-24T05:20:17.370Z,7.07
2022-09-24T05:22:45.526Z,7.08
2022-09-24T05:25:14.091Z,7.12
2022-09-24T05:27:52.219Z,7.18
2022-09-24T05:30:21.125Z,7.19
2022-09-24T05:32:54.121Z,7.25
2022-09-24T05:35:23.343Z,7.36
2022-09-24T05:37:53.710Z,7.48
2022-09-24T05:40:40.197Z,7.57
2022-09-24T05:43:07.387Z,7.67
2022-09-24T05:45:34.363Z,7.73
2022-09-24T05:48:01.669Z,7.80
2022-09-24T05:50:28.890Z,7.81
2022-09-24T05:52:55.977Z,7.79
2022-09-24T05:55:23.024Z,7.86
2022-09-24T05:57:50.082Z,8.02
2022-09-24T06:00:17.038Z,7.96
2022-09-24T06:02:44.256Z,8.02
2022-09-24T06:05:12.056Z,8.02
2022-09-24T06:07:39.704Z,8.03
2022-09-24T06:10:10.515Z,8.15
2022-09-24T06:12:37.394Z,8.28
2022-09-24T06:15:04.744Z,8.35
2022-09-24T06:17:32.711Z,8.41
2022-09-24T06:19:59.919Z,8.50
2022-09-24T06:22:29.024Z,8.62
2022-09-24T06:24:56.186Z,8.78
2022-09-24T06:27:23.745Z,8.89
2022-09-24T06:29:50.836Z,8.96
2022-09-24T06:32:18.908Z,9.03
2022-09-24T06:34:45.954Z,9.12
2022-09-24T06:37:12.891Z,9.21
2022-09-24T06:39:39.888Z,9.27
2022-09-24T06:42:07.408Z,9.38
2022-09-24T06:44:35.259Z,9.38
2022-09-24T06:47:02.361Z,9.37
2022-09-24T06:49:33.769Z,9.50
2022-09-24T06:52:01.439Z,9.68
2022-09-24T06:54:28.634Z,9.82
2022-09-24T06:56:55.550Z,9.94
2022-09-24T06:59:22.554Z,9.98
2022-09-24T07:01:49.601Z,10.02
2022-09-24T07:04:16.659Z,10.10
2022-09-24T07:07:02.099Z,10.17
2022-09-24T07:09:29.108Z,10.25
2022-09-24T07:11:58.993Z,10.30
2022-09-24T07:14:26.015Z,10.47
2022-09-24T07:16:54.158Z,10.46
2022-09-24T07:19:21.161Z,10.50
2022-09-24T07:21:48.139Z,10.66
2022-09-24T07:24:15.179Z,10.67
2022-09-24T07:26:42.463Z,10.73
2022-09-24T07:29:09.552Z,10.84
2022-09-24T07:31:36.948Z,10.94
2022-09-24T07:34:06.584Z,10.88
2022-09-24T07:36:33.508Z,10.98
2022-09-24T07:39:01.472Z,10.98
2022-09-24T07:41:28.407Z,10.98
2022-09-24T07:43:56.367Z,10.98
2022-09-24T07:46:24.514Z,11.10
2022-09-24T07:48:57.737Z,11.15
2022-09-24T07:51:27.444Z,11.31
2022-09-24T07:53:55.709Z,11.45
2022-09-24T07:56:24.253Z,11.56
2022-09-24T07:58:52.981Z,11.63
2022-09-24T08:01:20.501Z,11.71
2022-09-24T08:03:47.728Z,11.81
2022-09-24T08:06:14.844Z,11.86
2022-09-24T08:08:41.876Z,12.08
2022-09-24T08:11:12.645Z,12.09
2022-09-24T08:13:40.373Z,12.27
2022-09-24T08:16:07.495Z,12.33
2022-09-24T08:18:34.715Z,12.35
2022-09-24T08:21:11.155Z,12.57
2022-09-24T08:23:40.172Z,12.65
2022-09-24T08:26:07.637Z,12.79
2022-09-24T08:28:35.117Z,12.79
2022-09-24T08:31:04.423Z,12.97
2022-09-24T08:33:32.897Z,12.98
2022-09-24T08:36:00.848Z,13.06
2022-09-24T08:38:28.048Z,13.33
2022-09-24T08:41:33.493Z,13.40
2022-09-24T08:44:41.906Z,13.55
2022-09-24T08:47:25.183Z,13.66
2022-09-24T08:50:02.260Z,13.74
2022-09-24T08:52:37.531Z,13.88
2022-09-24T08:55:13.052Z,13.91
2022-09-24T08:58:10.665Z,14.02
2022-09-24T09:00:46.492Z,14.27
2022-09-24T09:03:52.593Z,14.52
2022-09-24T09:07:15.058Z,14.61
2022-09-24T09:09:48.877Z,14.85
2022-09-24T09:12:22.155Z,15.03
2022-09-24T09:15:04.967Z,15.27
2022-09-24T09:17:49.603Z,15.45
2022-09-24T09:20:23.366Z,15.63
2022-09-24T09:22:53.599Z,15.77
2022-09-24T09:25:31.748Z,15.97
2022-09-24T09:28:03.035Z,16.09
2022-09-24T09:31:07.153Z,16.36
2022-09-24T09:34:15.730Z,16.62
2022-09-24T09:37:04.509Z,16.72
2022-09-24T09:40:03.394Z,16.96
2022-09-24T09:42:32.765Z,17.26
2022-09-24T09:45:15.494Z,17.27
2022-09-24T09:48:03.359Z,17.36
2022-09-24T09:51:03.994Z,17.30
2022-09-24T09:53:32.201Z,17.51
2022-09-24T09:56:03.137Z,17.82
2022-09-24T09:58:34.922Z,17.95
2022-09-24T10:01:12.162Z,18.09
2022-09-24T10:03:50.143Z,18.00
2022-09-24T10:06:31.885Z,18.04
2022-09-24T10:09:22.561Z,18.16
2022-09-24T10:11:49.761Z,18.36
2022-09-24T10:14:19.388Z,18.59
2022-09-24T10:16:52.065Z,18.74
2022-09-24T10:19:28.065Z,18.89
2022-09-24T10:21:59.845Z,19.15
2022-09-24T10:24:28.584Z,19.48
2022-09-24T10:26:55.705Z,19.44
2022-09-24T10:29:52.082Z,19.44
2022-09-24T10:32:29.716Z,19.64
2022-09-24T10:35:01.447Z,19.90
2022-09-24T10:37:29.705Z,20.17
2022-09-24T10:40:01.879Z,20.48
2022-09-24T10:42:30.433Z,20.73
2022-09-24T10:45:04.856Z,20.81
2022-09-24T10:47:56.991Z,20.77
2022-09-24T10:51:29.135Z,20.85
2022-09-24T10:54:21.557Z,20.60
2022-09-24T10:56:53.840Z,20.71
2022-09-24T10:59:51.883Z,20.80
2022-09-24T11:03:03.520Z,21.26
2022-09-24T11:05:36.255Z,21.13
2022-09-24T11:08:28.950Z,21.02
2022-09-24T11:11:41.124Z,21.30
2022-09-24T11:14:47.585Z,21.59
2022-09-24T11:17:55.265Z,21.28
2022-09-24T11:20:39.665Z,21.22
2022-09-24T11:23:23.441Z,21.14
2022-09-24T11:26:24.023Z,21.63
2022-09-24T11:29:09.885Z,22.15
2022-09-24T11:32:06.598Z,22.48
2022-09-24T11:35:27.211Z,22.02
2022-09-24T11:38:46.749Z,22.02
2022-09-24T11:42:06.160Z,22.42
2022-09-24T11:45:05.613Z,22.82
2022-09-24T11:48:00.204Z,23.24
2022-09-24T11:51:00.127Z,23.61
2022-09-24T11:54:07.451Z,24.15
2022-09-24T11:56:47.594Z,24.37
2022-09-24T11:59:42.645Z,24.52
2022-09-24T12:02:22.236Z,24.33
2022-09-24T12:05:03.601Z,24.26
2022-09-24T12:07:37.266Z,23.96
2022-09-24T12:10:30.017Z,23.81
2022-09-24T12:13:05.760Z,23.88
2022-09-24T12:15:46.223Z,24.16
2022-09-24T12:18:20.755Z,24.39
2022-09-24T12:20:52.185Z,24.51
2022-09-24T12:23:24.928Z,24.59
2022-09-24T12:25:53.897Z,24.48
2022-09-24T12:28:40.587Z,24.77
2022-09-24T12:32:06.575Z,25.04
2022-09-24T12:34:54.982Z,25.02
2022-09-24T12:37:29.652Z,24.75
2022-09-24T12:40:52.991Z,24.51
2022-09-24T12:43:43.556Z,24.50
2022-09-24T12:46:18.804Z,24.83
2022-09-24T12:48:47.595Z,25.34
2022-09-24T12:51:14.991Z,25.57
2022-09-24T12:53:44.184Z,25.91
2022-09-24T12:56:11.996Z,26.12
2022-09-24T12:58:44.429Z,26.00
2022-09-24T13:01:30.736Z,25.93
2022-09-24T13:04:36.417Z,25.56
2022-09-24T13:07:03.887Z,25.70
2022-09-24T13:09:39.290Z,25.80
2022-09-24T13:12:36.048Z,26.21
2022-09-24T13:15:06.879Z,26.62
2022-09-24T13:17:35.782Z,26.74
2022-09-24T13:20:11.729Z,26.66
2022-09-24T13:22:38.802Z,26.59
2022-09-24T13:25:27.039Z,26.47
2022-09-24T13:28:00.663Z,26.21
2022-09-24T13:30:38.832Z,25.80
2022-09-24T13:33:32.256Z,25.85
2022-09-24T13:36:38.904Z,25.94
2022-09-24T13:39:47.385Z,26.12
2022-09-24T13:42:39.746Z,26.61
2022-09-24T13:45:15.144Z,27.05
2022-09-24T13:47:57.659Z,27.34
2022-09-24T13:50:53.760Z,27.48
2022-09-24T13:53:41.296Z,27.67
2022-09-24T13:56:15.642Z,27.81
2022-09-24T13:58:44.019Z,27.95
2022-09-24T14:01:30.977Z,27.71
2022-09-24T14:04:01.249Z,27.28
2022-09-24T14:06:40.693Z,26.66
2022-09-24T14:09:31.228Z,26.03
2022-09-24T14:11:59.531Z,25.31
2022-09-24T14:14:29.974Z,25.20
2022-09-24T14:17:13.065Z,25.04
2022-09-24T14:19:40.771Z,25.00
2022-09-24T14:22:17.824Z,24.94
2022-09-24T14:24:55.653Z,24.92
2022-09-24T14:27:24.521Z,24.55
2022-09-24T14:30:00.576Z,24.23
2022-09-24T14:32:31.573Z,24.00
2022-09-24T14:35:04.115Z,23.94
2022-09-24T14:37:34.823Z,23.82
2022-09-24T14:40:07.347Z,23.71
2022-09-24T14:42:46.151Z,23.46
2022-09-24T14:45:42.561Z,23.44
2022-09-24T14:48:28.481Z,23.36
2022-09-24T14:50:55.668Z,23.21
2022-09-24T14:53:36.398Z,23.34
2022-09-24T14:56:26.378Z,23.57
2022-09-24T14:58:53.526Z,24.41
2022-09-24T15:01:23.578Z,25.58
2022-09-24T15:03:54.681Z,27.10
2022-09-24T15:06:27.303Z,28.35
2022-09-24T15:09:19.133Z,29.62
2022-09-24T15:11:46.668Z,30.62
2022-09-24T15:14:27.827Z,31.41
2022-09-24T15:16:55.628Z,31.76
2022-09-24T15:19:25.647Z,31.97
2022-09-24T15:21:56.790Z,32.27
2022-09-24T15:24:25.360Z,32.00
2022-09-24T15:27:29.428Z,32.35
2022-09-24T15:29:59.830Z,32.42
2022-09-24T15:32:32.699Z,32.13
2022-09-24T15:35:00.064Z,31.83
2022-09-24T15:37:28.755Z,31.86
2022-09-24T15:40:05.759Z,31.98
2022-09-24T15:42:32.797Z,31.72
2022-09-24T15:44:59.821Z,31.73
2022-09-24T15:47:26.821Z,31.63
2022-09-24T15:49:53.829Z,31.28
2022-09-24T15:52:26.720Z,31.25
2022-09-24T15:54:59.063Z,30.47
2022-09-24T15:57:26.749Z,29.53
2022-09-24T15:59:54.402Z,28.10
2022-09-24T16:02:25.652Z,27.10
2022-09-24T16:04:53.091Z,26.55
2022-09-24T16:07:20.029Z,25.89
2022-09-24T16:09:47.008Z,25.29
2022-09-24T16:12:18.237Z,24.95
2022-09-24T16:14:45.576Z,24.15
2022-09-24T16:17:13.018Z,23.63
2022-09-24T16:19:40.007Z,23.16
2022-09-24T16:22:06.932Z,22.77
2022-09-24T16:24:35.136Z,22.43
2022-09-24T16:27:02.516Z,22.17
2022-09-24T16:29:29.502Z,21.91
2022-09-24T16:31:56.424Z,21.64
2022-09-24T16:34:23.545Z,21.39
2022-09-24T16:36:50.555Z,21.13
2022-09-24T16:39:17.610Z,20.91
2022-09-24T16:41:44.750Z,20.70
2022-09-24T16:44:15.375Z,20.50
2022-09-24T16:46:42.835Z,20.15
2022-09-24T16:49:10.639Z,19.83
2022-09-24T16:51:38.128Z,19.61
2022-09-24T16:54:08.206Z,19.43
2022-09-24T16:56:35.245Z,19.28
2022-09-24T16:59:02.307Z,19.09
2022-09-24T17:01:29.427Z,18.93
2022-09-24T17:03:58.348Z,18.75
2022-09-24T17:06:28.208Z,18.59
2022-09-24T17:09:14.424Z,18.44
2022-09-24T17:11:42.070Z,18.24
2022-09-24T17:14:11.700Z,18.06
2022-09-24T17:16:39.657Z,17.88
2022-09-24T17:19:08.291Z,17.69
2022-09-24T17:21:37.483Z,17.54
2022-09-24T17:24:06.233Z,17.42
2022-09-24T17:26:33.582Z,17.27
2022-09-24T17:29:00.703Z,17.15
2022-09-24T17:31:27.729Z,17.00
2022-09-24T17:34:03.213Z,16.91
2022-09-24T17:36:32.630Z,16.80
2022-09-24T17:39:01.292Z,16.68
2022-09-24T17:41:30.064Z,16.56
2022-09-24T17:44:01.269Z,16.40
2022-09-24T17:46:31.324Z,16.30
2022-09-24T17:49:00.564Z,16.20
2022-09-24T17:51:34.319Z,16.14
2022-09-24T17:54:03.775Z,16.08
2022-09-24T17:56:32.778Z,15.91
2022-09-24T17:59:00.669Z,15.67
2022-09-24T18:01:30.231Z,15.57
2022-09-24T18:03:58.705Z,15.48
2022-09-24T18:06:32.531Z,15.42
2022-09-24T18:09:01.536Z,15.34
2022-09-24T18:11:32.244Z,15.28
2022-09-24T18:14:00.734Z,15.23
2022-09-24T18:16:33.213Z,15.24
2022-09-24T18:19:01.701Z,15.24
2022-09-24T18:21:29.958Z,15.19
2022-09-24T18:23:58.634Z,15.09
2022-09-24T18:26:34.450Z,15.02
2022-09-24T18:29:16.130Z,14.96
2022-09-24T18:31:44.118Z,14.91
2022-09-24T18:34:15.659Z,14.75
2022-09-24T18:36:44.586Z,14.65
2022-09-24T18:39:13.707Z,14.51
2022-09-24T18:41:41.815Z,14.41
2022-09-24T18:44:10.624Z,14.34
2022-09-24T18:46:37.726Z,14.16
2022-09-24T18:49:06.523Z,14.10
2022-09-24T18:51:36.264Z,14.31
2022-09-24T18:54:12.306Z,14.50
2022-09-24T18:56:39.840Z,14.43
2022-09-24T18:59:16.388Z,14.35
2022-09-24T19:01:44.593Z,14.14
2022-09-24T19:04:13.508Z,14.04
2022-09-24T19:06:43.042Z,14.23
2022-09-24T19:09:12.139Z,14.30
2022-09-24T19:11:42.248Z,14.31
2022-09-24T19:14:12.253Z,14.18
2022-09-24T19:16:40.026Z,14.24
2022-09-24T19:19:07.263Z,14.23
2022-09-24T19:21:34.229Z,14.06
2022-09-24T19:24:01.606Z,13.97
2022-09-24T19:26:31.830Z,14.02
2022-09-24T19:28:59.065Z,14.00
2022-09-24T19:31:30.417Z,13.98
2022-09-24T19:33:58.787Z,14.10
2022-09-24T19:36:26.302Z,14.05
2022-09-24T19:38:53.713Z,13.91
2022-09-24T19:41:27.002Z,13.93
2022-09-24T19:43:57.274Z,13.90
2022-09-24T19:46:27.227Z,13.97
2022-09-24T19:48:56.146Z,13.98
2022-09-24T19:51:29.333Z,13.97
2022-09-24T19:54:02.573Z,13.95
2022-09-24T19:56:31.048Z,14.10
2022-09-24T19:58:59.519Z,13.96
2022-09-24T20:01:29.976Z,13.85
2022-09-24T20:03:58.329Z,13.56
2022-09-24T20:06:29.383Z,13.28
2022-09-24T20:08:57.611Z,13.15
2022-09-24T20:11:25.956Z,13.05
2022-09-24T20:13:56.676Z,13.02
2022-09-24T20:16:26.762Z,13.03
2022-09-24T20:18:58.035Z,13.04
2022-09-24T20:21:31.551Z,13.08
2022-09-24T20:23:59.446Z,13.12
2022-09-24T20:26:46.543Z,13.10
2022-09-24T20:29:15.100Z,13.21
2022-09-24T20:31:51.393Z,13.24
2022-09-24T20:34:28.766Z,13.05
2022-09-24T20:37:01.774Z,12.64
2022-09-24T20:39:29.767Z,12.45
2022-09-24T20:41:57.174Z,12.38
2022-09-24T20:44:25.454Z,12.35
2022-09-24T20:46:52.499Z,12.37
2022-09-24T20:49:23.172Z,12.36
2022-09-24T20:51:57.478Z,12.37
2022-09-24T20:54:26.721Z,12.36
2022-09-24T20:56:53.737Z,12.35
2022-09-24T20:59:20.646Z,12.39
2022-09-24T21:01:49.627Z,12.44
2022-09-24T21:04:17.570Z,12.47
2022-09-24T21:06:44.615Z,12.53
2022-09-24T21:09:11.792Z,12.58
2022-09-24T21:11:38.970Z,12.65
2022-09-24T21:14:11.670Z,12.71
2022-09-24T21:16:39.035Z,12.70
2022-09-24T21:19:08.182Z,12.68
2022-09-24T21:21:39.464Z,12.68
2022-09-24T21:24:10.550Z,12.65
2022-09-24T21:26:39.232Z,12.67
2022-09-24T21:29:17.663Z,12.73
2022-09-24T21:31:46.485Z,12.76
2022-09-24T21:34:15.813Z,12.80
2022-09-24T21:36:45.856Z,12.87
2022-09-24T21:39:23.255Z,12.92
2022-09-24T21:41:53.160Z,12.96
2022-09-24T21:44:20.166Z,12.94
2022-09-24T21:46:47.581Z,12.92
2022-09-24T21:49:14.612Z,12.81
2022-09-24T21:51:42.155Z,12.66
2022-09-24T21:54:13.120Z,12.54
2022-09-24T21:56:40.398Z,12.47
2022-09-24T21:59:27.587Z,12.38
2022-09-24T22:01:55.472Z,12.30
2022-09-24T22:04:22.776Z,12.29
2022-09-24T22:06:51.184Z,12.22
2022-09-24T22:09:19.445Z,12.25
2022-09-24T22:11:47.054Z,12.28
2022-09-24T22:14:14.474Z,12.17
2022-09-24T22:16:41.874Z,11.98
2022-09-24T22:19:09.527Z,11.81
2022-09-24T22:21:36.901Z,11.77
2022-09-24T22:24:04.576Z,11.74
2022-09-24T22:26:31.539Z,11.69
2022-09-24T22:28:59.445Z,11.68
2022-09-24T22:31:26.942Z,11.66
2022-09-24T22:34:16.923Z,11.65
2022-09-24T22:36:46.382Z,11.61
2022-09-24T22:39:13.728Z,11.57
2022-09-24T22:41:44.236Z,11.60
2022-09-24T22:44:12.311Z,11.56
2022-09-24T22:46:42.045Z,11.52
2022-09-24T22:49:11.110Z,11.46
2022-09-24T22:51:39.596Z,11.43
2022-09-24T22:54:07.743Z,11.47
2022-09-24T22:56:35.584Z,11.46
2022-09-24T22:59:02.711Z,11.43
2022-09-24T23:01:38.693Z,11.40
2022-09-24T23:04:06.235Z,11.45
2022-09-24T23:06:34.892Z,11.32
2022-09-24T23:09:02.151Z,11.53
2022-09-24T23:11:32.240Z,11.34
2022-09-24T23:14:02.812Z,11.22
2022-09-24T23:16:32.266Z,11.23
2022-09-24T23:19:01.763Z,11.21
2022-09-24T23:21:33.487Z,11.18
2022-09-24T23:24:03.181Z,11.18
2022-09-24T23:26:31.565Z,11.13
2022-09-24T23:29:00.821Z,11.12
2022-09-24T23:31:30.800Z,11.16
2022-09-24T23:33:59.800Z,11.15
2022-09-24T23:36:28.341Z,11.11
2022-09-24T23:38:55.455Z,11.10
2022-09-24T23:41:22.411Z,11.09
2022-09-24T23:43:50.363Z,11.05
2022-09-24T23:46:18.075Z,10.89
2022-09-24T23:48:45.569Z,10.82
2022-09-24T23:51:12.902Z,10.81
2022-09-24T23:53:40.161Z,10.76
2022-09-24T23:56:08.113Z,10.77
2022-09-24T23:58:35.369Z,10.75
